sensor_id;sensor_type;location;lat;lon;timestamp;P1;durP1;ratioP1;P2;durP2;ratioP2
10275;SDS011;5183;51.190;6.820;2023-03-21T00:01:11;8.83;;;4.43;;
10275;SDS011;5183;51.190;6.820;2023-03-21T00:03:39;10.00;;;5.20;;
10275;SDS011;5183;51.190;6.820;2023-03-21T00:06:08;10.83;;;5.43;;
10275;SDS011;5183;51.190;6.820;2023-03-21T00:08:36;8.93;;;4.93;;
10275;SDS011;5183;51.190;6.820;2023-03-21T00:11:04;11.80;;;5.20;;
10275;SDS011;5183;51.190;6.820;2023-03-21T00:13:34;8.50;;;4.87;;
10275;SDS011;5183;51.190;6.820;2023-03-21T00:16:03;11.10;;;5.53;;
10275;SDS011;5183;51.190;6.820;2023-03-21T00:18:31;11.23;;;5.30;;
10275;SDS011;5183;51.190;6.820;2023-03-21T00:21:01;9.60;;;5.47;;
10275;SDS011;5183;51.190;6.820;2023-03-21T00:23:30;11.13;;;5.00;;
10275;SDS011;5183;51.190;6.820;2023-03-21T00:25:58;13.17;;;5.57;;
10275;SDS011;5183;51.190;6.820;2023-03-21T00:28:25;13.30;;;5.63;;
10275;SDS011;5183;51.190;6.820;2023-03-21T00:30:57;10.80;;;5.40;;
10275;SDS011;5183;51.190;6.820;2023-03-21T00:33:24;10.27;;;5.13;;
10275;SDS011;5183;51.190;6.820;2023-03-21T00:35:51;12.50;;;5.50;;
10275;SDS011;5183;51.190;6.820;2023-03-21T00:38:18;9.23;;;5.57;;
10275;SDS011;5183;51.190;6.820;2023-03-21T00:40:46;12.87;;;5.60;;
10275;SDS011;5183;51.190;6.820;2023-03-21T00:43:14;8.77;;;5.30;;
10275;SDS011;5183;51.190;6.820;2023-03-21T00:45:43;11.23;;;5.37;;
10275;SDS011;5183;51.190;6.820;2023-03-21T00:48:12;12.83;;;6.13;;
10275;SDS011;5183;51.190;6.820;2023-03-21T00:50:39;12.70;;;5.93;;
10275;SDS011;5183;51.190;6.820;2023-03-21T00:53:09;13.70;;;6.37;;
10275;SDS011;5183;51.190;6.820;2023-03-21T00:55:36;11.73;;;5.40;;
10275;SDS011;5183;51.190;6.820;2023-03-21T00:58:03;10.47;;;5.87;;
10275;SDS011;5183;51.190;6.820;2023-03-21T01:00:31;11.10;;;6.60;;
10275;SDS011;5183;51.190;6.820;2023-03-21T01:03:00;11.43;;;6.57;;
10275;SDS011;5183;51.190;6.820;2023-03-21T01:05:32;13.93;;;5.77;;
10275;SDS011;5183;51.190;6.820;2023-03-21T01:08:20;9.93;;;5.90;;
10275;SDS011;5183;51.190;6.820;2023-03-21T01:10:48;12.80;;;6.50;;
10275;SDS011;5183;51.190;6.820;2023-03-21T01:13:17;13.30;;;6.60;;
10275;SDS011;5183;51.190;6.820;2023-03-21T01:15:46;9.87;;;6.43;;
10275;SDS011;5183;51.190;6.820;2023-03-21T01:18:15;11.60;;;6.97;;
10275;SDS011;5183;51.190;6.820;2023-03-21T01:20:45;16.27;;;7.23;;
10275;SDS011;5183;51.190;6.820;2023-03-21T01:23:13;13.77;;;6.83;;
10275;SDS011;5183;51.190;6.820;2023-03-21T01:25:41;11.47;;;6.20;;
10275;SDS011;5183;51.190;6.820;2023-03-21T01:28:08;12.60;;;6.93;;
10275;SDS011;5183;51.190;6.820;2023-03-21T01:30:36;13.03;;;6.90;;
10275;SDS011;5183;51.190;6.820;2023-03-21T01:33:02;14.37;;;7.37;;
10275;SDS011;5183;51.190;6.820;2023-03-21T01:35:31;8.57;;;6.33;;
10275;SDS011;5183;51.190;6.820;2023-03-21T01:37:59;14.77;;;7.87;;
10275;SDS011;5183;51.190;6.820;2023-03-21T01:40:26;14.63;;;7.70;;
10275;SDS011;5183;51.190;6.820;2023-03-21T01:42:53;14.13;;;7.90;;
10275;SDS011;5183;51.190;6.820;2023-03-21T01:48:45;11.20;;;6.77;;
10275;SDS011;5183;51.190;6.820;2023-03-21T01:51:13;14.37;;;7.53;;
10275;SDS011;5183;51.190;6.820;2023-03-21T01:53:42;11.73;;;7.13;;
10275;SDS011;5183;51.190;6.820;2023-03-21T01:56:13;11.40;;;7.03;;
10275;SDS011;5183;51.190;6.820;2023-03-21T01:58:44;15.53;;;8.10;;
10275;SDS011;5183;51.190;6.820;2023-03-21T02:01:12;17.70;;;7.90;;
10275;SDS011;5183;51.190;6.820;2023-03-21T02:03:40;14.53;;;8.03;;
10275;SDS011;5183;51.190;6.820;2023-03-21T02:06:15;12.83;;;7.63;;
10275;SDS011;5183;51.190;6.820;2023-03-21T02:08:58;14.07;;;7.83;;
10275;SDS011;5183;51.190;6.820;2023-03-21T02:11:28;14.60;;;7.33;;
10275;SDS011;5183;51.190;6.820;2023-03-21T02:13:57;13.60;;;7.77;;
10275;SDS011;5183;51.190;6.820;2023-03-21T02:16:26;11.40;;;7.23;;
10275;SDS011;5183;51.190;6.820;2023-03-21T02:19:03;13.57;;;7.97;;
10275;SDS011;5183;51.190;6.820;2023-03-21T02:21:55;8.63;;;6.47;;
10275;SDS011;5183;51.190;6.820;2023-03-21T02:28:06;13.80;;;7.73;;
10275;SDS011;5183;51.190;6.820;2023-03-21T02:30:40;12.10;;;7.30;;
10275;SDS011;5183;51.190;6.820;2023-03-21T02:33:40;12.50;;;7.03;;
10275;SDS011;5183;51.190;6.820;2023-03-21T02:36:30;13.10;;;7.23;;
10275;SDS011;5183;51.190;6.820;2023-03-21T02:39:23;13.43;;;7.70;;
10275;SDS011;5183;51.190;6.820;2023-03-21T02:41:56;14.87;;;8.00;;
10275;SDS011;5183;51.190;6.820;2023-03-21T02:44:29;11.33;;;7.40;;
10275;SDS011;5183;51.190;6.820;2023-03-21T02:47:00;15.50;;;7.67;;
10275;SDS011;5183;51.190;6.820;2023-03-21T02:49:32;12.67;;;7.70;;
10275;SDS011;5183;51.190;6.820;2023-03-21T02:52:04;13.53;;;7.13;;
10275;SDS011;5183;51.190;6.820;2023-03-21T02:54:32;12.67;;;7.67;;
10275;SDS011;5183;51.190;6.820;2023-03-21T02:57:01;15.90;;;7.40;;
10275;SDS011;5183;51.190;6.820;2023-03-21T02:59:30;15.23;;;7.37;;
10275;SDS011;5183;51.190;6.820;2023-03-21T03:01:58;13.67;;;7.83;;
10275;SDS011;5183;51.190;6.820;2023-03-21T03:04:26;11.93;;;6.87;;
10275;SDS011;5183;51.190;6.820;2023-03-21T03:07:04;12.47;;;6.50;;
10275;SDS011;5183;51.190;6.820;2023-03-21T03:09:40;12.50;;;7.50;;
10275;SDS011;5183;51.190;6.820;2023-03-21T03:12:23;10.60;;;7.20;;
10275;SDS011;5183;51.190;6.820;2023-03-21T03:14:58;15.40;;;7.53;;
10275;SDS011;5183;51.190;6.820;2023-03-21T03:17:34;11.90;;;7.13;;
10275;SDS011;5183;51.190;6.820;2023-03-21T03:20:14;13.47;;;7.93;;
10275;SDS011;5183;51.190;6.820;2023-03-21T03:22:51;13.27;;;7.90;;
10275;SDS011;5183;51.190;6.820;2023-03-21T03:25:23;15.23;;;7.83;;
10275;SDS011;5183;51.190;6.820;2023-03-21T03:27:55;12.07;;;7.00;;
10275;SDS011;5183;51.190;6.820;2023-03-21T03:30:24;16.93;;;8.13;;
10275;SDS011;5183;51.190;6.820;2023-03-21T03:32:53;14.20;;;8.50;;
10275;SDS011;5183;51.190;6.820;2023-03-21T03:35:22;14.27;;;8.50;;
10275;SDS011;5183;51.190;6.820;2023-03-21T03:37:54;13.23;;;7.90;;
10275;SDS011;5183;51.190;6.820;2023-03-21T03:40:24;14.43;;;8.80;;
10275;SDS011;5183;51.190;6.820;2023-03-21T03:42:55;12.93;;;7.90;;
10275;SDS011;5183;51.190;6.820;2023-03-21T03:45:27;14.53;;;8.07;;
10275;SDS011;5183;51.190;6.820;2023-03-21T03:48:01;12.60;;;8.27;;
10275;SDS011;5183;51.190;6.820;2023-03-21T03:50:33;12.83;;;7.67;;
10275;SDS011;5183;51.190;6.820;2023-03-21T03:53:06;13.77;;;8.03;;
10275;SDS011;5183;51.190;6.820;2023-03-21T03:55:40;12.30;;;8.20;;
10275;SDS011;5183;51.190;6.820;2023-03-21T03:58:08;13.30;;;8.27;;
10275;SDS011;5183;51.190;6.820;2023-03-21T04:00:35;13.30;;;7.57;;
10275;SDS011;5183;51.190;6.820;2023-03-21T04:03:03;14.97;;;7.70;;
10275;SDS011;5183;51.190;6.820;2023-03-21T04:05:31;13.77;;;7.87;;
10275;SDS011;5183;51.190;6.820;2023-03-21T04:07:58;10.97;;;7.13;;
10275;SDS011;5183;51.190;6.820;2023-03-21T04:10:26;13.27;;;8.40;;
10275;SDS011;5183;51.190;6.820;2023-03-21T04:12:53;13.33;;;8.13;;
10275;SDS011;5183;51.190;6.820;2023-03-21T04:15:20;16.03;;;7.87;;
10275;SDS011;5183;51.190;6.820;2023-03-21T04:17:47;12.90;;;7.10;;
10275;SDS011;5183;51.190;6.820;2023-03-21T04:20:14;16.47;;;10.97;;
10275;SDS011;5183;51.190;6.820;2023-03-21T04:22:41;16.30;;;8.03;;
10275;SDS011;5183;51.190;6.820;2023-03-21T04:25:08;17.77;;;8.07;;
10275;SDS011;5183;51.190;6.820;2023-03-21T04:27:38;14.27;;;7.67;;
10275;SDS011;5183;51.190;6.820;2023-03-21T04:30:06;12.23;;;8.17;;
10275;SDS011;5183;51.190;6.820;2023-03-21T04:32:36;10.83;;;7.40;;
10275;SDS011;5183;51.190;6.820;2023-03-21T04:35:04;17.97;;;8.20;;
10275;SDS011;5183;51.190;6.820;2023-03-21T04:37:32;15.27;;;7.00;;
10275;SDS011;5183;51.190;6.820;2023-03-21T04:39:59;13.47;;;8.30;;
10275;SDS011;5183;51.190;6.820;2023-03-21T04:42:33;15.47;;;8.40;;
10275;SDS011;5183;51.190;6.820;2023-03-21T04:45:02;16.67;;;8.87;;
10275;SDS011;5183;51.190;6.820;2023-03-21T04:47:30;13.63;;;7.87;;
10275;SDS011;5183;51.190;6.820;2023-03-21T04:49:57;13.20;;;7.63;;
10275;SDS011;5183;51.190;6.820;2023-03-21T04:52:24;12.50;;;6.80;;
10275;SDS011;5183;51.190;6.820;2023-03-21T04:54:51;10.67;;;7.37;;
10275;SDS011;5183;51.190;6.820;2023-03-21T04:57:18;13.00;;;7.70;;
10275;SDS011;5183;51.190;6.820;2023-03-21T04:59:45;15.13;;;7.50;;
10275;SDS011;5183;51.190;6.820;2023-03-21T05:02:13;12.53;;;7.13;;
10275;SDS011;5183;51.190;6.820;2023-03-21T05:04:40;15.20;;;7.60;;
10275;SDS011;5183;51.190;6.820;2023-03-21T05:07:07;14.90;;;7.87;;
10275;SDS011;5183;51.190;6.820;2023-03-21T05:09:34;11.20;;;7.23;;
10275;SDS011;5183;51.190;6.820;2023-03-21T05:12:01;11.17;;;7.27;;
10275;SDS011;5183;51.190;6.820;2023-03-21T05:14:28;12.23;;;7.03;;
10275;SDS011;5183;51.190;6.820;2023-03-21T05:16:55;10.70;;;6.93;;
10275;SDS011;5183;51.190;6.820;2023-03-21T05:19:25;13.13;;;7.10;;
10275;SDS011;5183;51.190;6.820;2023-03-21T05:21:58;12.47;;;6.90;;
10275;SDS011;5183;51.190;6.820;2023-03-21T05:24:28;14.37;;;7.40;;
10275;SDS011;5183;51.190;6.820;2023-03-21T05:26:56;12.90;;;7.10;;
10275;SDS011;5183;51.190;6.820;2023-03-21T05:29:26;14.20;;;7.43;;
10275;SDS011;5183;51.190;6.820;2023-03-21T05:31:53;15.73;;;7.80;;
10275;SDS011;5183;51.190;6.820;2023-03-21T05:34:20;17.77;;;7.87;;
10275;SDS011;5183;51.190;6.820;2023-03-21T05:36:48;11.10;;;7.13;;
10275;SDS011;5183;51.190;6.820;2023-03-21T05:39:15;14.80;;;7.47;;
10275;SDS011;5183;51.190;6.820;2023-03-21T05:41:42;13.30;;;7.50;;
10275;SDS011;5183;51.190;6.820;2023-03-21T05:44:09;13.13;;;7.77;;
10275;SDS011;5183;51.190;6.820;2023-03-21T05:46:36;13.60;;;8.80;;
10275;SDS011;5183;51.190;6.820;2023-03-21T05:49:02;15.17;;;8.10;;
10275;SDS011;5183;51.190;6.820;2023-03-21T05:51:29;14.23;;;8.23;;
10275;SDS011;5183;51.190;6.820;2023-03-21T05:53:58;15.03;;;7.90;;
10275;SDS011;5183;51.190;6.820;2023-03-21T05:56:24;16.00;;;8.20;;
10275;SDS011;5183;51.190;6.820;2023-03-21T05:58:51;15.43;;;8.47;;
10275;SDS011;5183;51.190;6.820;2023-03-21T06:01:18;13.60;;;8.07;;
10275;SDS011;5183;51.190;6.820;2023-03-21T06:03:45;14.70;;;9.30;;
10275;SDS011;5183;51.190;6.820;2023-03-21T06:06:12;14.17;;;8.00;;
10275;SDS011;5183;51.190;6.820;2023-03-21T06:08:38;17.17;;;11.10;;
10275;SDS011;5183;51.190;6.820;2023-03-21T06:11:07;15.00;;;8.90;;
10275;SDS011;5183;51.190;6.820;2023-03-21T06:13:44;11.97;;;8.37;;
10275;SDS011;5183;51.190;6.820;2023-03-21T06:16:11;13.83;;;8.43;;
10275;SDS011;5183;51.190;6.820;2023-03-21T06:18:38;16.27;;;9.03;;
10275;SDS011;5183;51.190;6.820;2023-03-21T06:21:05;14.90;;;9.20;;
10275;SDS011;5183;51.190;6.820;2023-03-21T06:23:32;19.37;;;9.73;;
10275;SDS011;5183;51.190;6.820;2023-03-21T06:25:58;18.47;;;9.67;;
10275;SDS011;5183;51.190;6.820;2023-03-21T06:28:28;13.93;;;8.77;;
10275;SDS011;5183;51.190;6.820;2023-03-21T06:30:55;14.97;;;9.30;;
10275;SDS011;5183;51.190;6.820;2023-03-21T06:33:21;18.10;;;9.30;;
10275;SDS011;5183;51.190;6.820;2023-03-21T06:35:51;15.10;;;9.53;;
10275;SDS011;5183;51.190;6.820;2023-03-21T06:38:19;17.40;;;9.30;;
10275;SDS011;5183;51.190;6.820;2023-03-21T06:40:46;16.17;;;9.60;;
10275;SDS011;5183;51.190;6.820;2023-03-21T06:43:13;14.60;;;9.30;;
10275;SDS011;5183;51.190;6.820;2023-03-21T06:45:42;13.03;;;8.87;;
10275;SDS011;5183;51.190;6.820;2023-03-21T06:48:10;16.47;;;10.40;;
10275;SDS011;5183;51.190;6.820;2023-03-21T06:50:37;15.77;;;9.73;;
10275;SDS011;5183;51.190;6.820;2023-03-21T06:53:03;18.20;;;10.50;;
10275;SDS011;5183;51.190;6.820;2023-03-21T06:55:30;19.33;;;12.07;;
10275;SDS011;5183;51.190;6.820;2023-03-21T06:57:57;15.43;;;9.67;;
10275;SDS011;5183;51.190;6.820;2023-03-21T07:00:24;16.47;;;9.73;;
10275;SDS011;5183;51.190;6.820;2023-03-21T07:02:53;14.83;;;9.47;;
10275;SDS011;5183;51.190;6.820;2023-03-21T07:05:20;14.00;;;10.07;;
10275;SDS011;5183;51.190;6.820;2023-03-21T07:07:47;17.07;;;9.90;;
10275;SDS011;5183;51.190;6.820;2023-03-21T07:10:13;15.23;;;9.67;;
10275;SDS011;5183;51.190;6.820;2023-03-21T07:12:41;14.93;;;8.90;;
10275;SDS011;5183;51.190;6.820;2023-03-21T07:15:08;15.33;;;9.80;;
10275;SDS011;5183;51.190;6.820;2023-03-21T07:17:35;17.53;;;9.13;;
10275;SDS011;5183;51.190;6.820;2023-03-21T07:20:04;15.40;;;8.77;;
10275;SDS011;5183;51.190;6.820;2023-03-21T07:22:33;15.37;;;7.97;;
10275;SDS011;5183;51.190;6.820;2023-03-21T07:25:00;15.83;;;8.03;;
10275;SDS011;5183;51.190;6.820;2023-03-21T07:27:27;15.37;;;8.77;;
10275;SDS011;5183;51.190;6.820;2023-03-21T07:29:54;15.70;;;9.47;;
10275;SDS011;5183;51.190;6.820;2023-03-21T07:32:21;15.23;;;8.93;;
10275;SDS011;5183;51.190;6.820;2023-03-21T07:34:47;17.07;;;9.70;;
10275;SDS011;5183;51.190;6.820;2023-03-21T07:37:16;14.97;;;9.50;;
10275;SDS011;5183;51.190;6.820;2023-03-21T07:39:42;19.73;;;9.57;;
10275;SDS011;5183;51.190;6.820;2023-03-21T07:42:09;14.43;;;9.17;;
10275;SDS011;5183;51.190;6.820;2023-03-21T07:44:36;18.47;;;9.87;;
10275;SDS011;5183;51.190;6.820;2023-03-21T07:47:03;18.00;;;11.63;;
10275;SDS011;5183;51.190;6.820;2023-03-21T07:49:30;17.40;;;9.77;;
10275;SDS011;5183;51.190;6.820;2023-03-21T07:51:57;22.02;;;11.55;;
10275;SDS011;5183;51.190;6.820;2023-03-21T07:54:27;17.53;;;9.50;;
10275;SDS011;5183;51.190;6.820;2023-03-21T07:56:54;21.27;;;9.50;;
10275;SDS011;5183;51.190;6.820;2023-03-21T07:59:21;15.87;;;9.57;;
10275;SDS011;5183;51.190;6.820;2023-03-21T08:01:48;15.60;;;9.80;;
10275;SDS011;5183;51.190;6.820;2023-03-21T08:04:15;17.80;;;9.60;;
10275;SDS011;5183;51.190;6.820;2023-03-21T08:06:42;18.20;;;9.87;;
10275;SDS011;5183;51.190;6.820;2023-03-21T08:09:09;17.67;;;9.53;;
10275;SDS011;5183;51.190;6.820;2023-03-21T08:11:37;17.63;;;10.33;;
10275;SDS011;5183;51.190;6.820;2023-03-21T08:14:05;17.57;;;9.70;;
10275;SDS011;5183;51.190;6.820;2023-03-21T08:16:32;17.77;;;9.90;;
10275;SDS011;5183;51.190;6.820;2023-03-21T08:18:59;22.27;;;10.93;;
10275;SDS011;5183;51.190;6.820;2023-03-21T08:21:26;17.20;;;10.07;;
10275;SDS011;5183;51.190;6.820;2023-03-21T08:23:53;18.30;;;10.80;;
10275;SDS011;5183;51.190;6.820;2023-03-21T08:26:20;20.37;;;11.57;;
10275;SDS011;5183;51.190;6.820;2023-03-21T08:28:50;22.47;;;11.97;;
10275;SDS011;5183;51.190;6.820;2023-03-21T08:31:17;18.70;;;11.10;;
10275;SDS011;5183;51.190;6.820;2023-03-21T08:33:45;19.07;;;11.80;;
10275;SDS011;5183;51.190;6.820;2023-03-21T08:36:15;17.10;;;11.10;;
10275;SDS011;5183;51.190;6.820;2023-03-21T08:38:42;21.03;;;11.67;;
10275;SDS011;5183;51.190;6.820;2023-03-21T08:41:10;19.37;;;11.80;;
10275;SDS011;5183;51.190;6.820;2023-03-21T08:43:37;20.77;;;11.97;;
10275;SDS011;5183;51.190;6.820;2023-03-21T08:46:05;21.93;;;12.23;;
10275;SDS011;5183;51.190;6.820;2023-03-21T08:48:32;19.47;;;13.10;;
10275;SDS011;5183;51.190;6.820;2023-03-21T08:51:02;23.93;;;12.67;;
10275;SDS011;5183;51.190;6.820;2023-03-21T08:53:30;23.37;;;12.70;;
10275;SDS011;5183;51.190;6.820;2023-03-21T08:55:57;22.88;;;13.15;;
10275;SDS011;5183;51.190;6.820;2023-03-21T08:58:24;17.93;;;11.53;;
10275;SDS011;5183;51.190;6.820;2023-03-21T09:00:51;22.83;;;12.63;;
10275;SDS011;5183;51.190;6.820;2023-03-21T09:03:19;19.63;;;13.27;;
10275;SDS011;5183;51.190;6.820;2023-03-21T09:05:46;21.37;;;12.60;;
10275;SDS011;5183;51.190;6.820;2023-03-21T09:08:14;23.30;;;13.67;;
10275;SDS011;5183;51.190;6.820;2023-03-21T09:10:40;22.43;;;14.00;;
10275;SDS011;5183;51.190;6.820;2023-03-21T09:13:07;20.80;;;13.17;;
10275;SDS011;5183;51.190;6.820;2023-03-21T09:15:34;24.13;;;12.67;;
10275;SDS011;5183;51.190;6.820;2023-03-21T09:18:01;21.00;;;12.70;;
10275;SDS011;5183;51.190;6.820;2023-03-21T09:20:39;18.70;;;11.57;;
10275;SDS011;5183;51.190;6.820;2023-03-21T09:23:07;18.93;;;11.30;;
10275;SDS011;5183;51.190;6.820;2023-03-21T09:25:34;19.77;;;11.53;;
10275;SDS011;5183;51.190;6.820;2023-03-21T09:28:02;20.77;;;12.32;;
10275;SDS011;5183;51.190;6.820;2023-03-21T09:30:30;19.03;;;10.93;;
10275;SDS011;5183;51.190;6.820;2023-03-21T09:32:58;17.13;;;10.40;;
10275;SDS011;5183;51.190;6.820;2023-03-21T09:35:26;14.70;;;10.13;;
10275;SDS011;5183;51.190;6.820;2023-03-21T09:37:55;12.07;;;9.13;;
10275;SDS011;5183;51.190;6.820;2023-03-21T09:40:26;15.13;;;9.10;;
10275;SDS011;5183;51.190;6.820;2023-03-21T09:43:06;12.93;;;9.23;;
10275;SDS011;5183;51.190;6.820;2023-03-21T09:45:41;15.07;;;9.30;;
10275;SDS011;5183;51.190;6.820;2023-03-21T09:48:17;13.43;;;9.57;;
10275;SDS011;5183;51.190;6.820;2023-03-21T09:50:55;16.60;;;10.10;;
10275;SDS011;5183;51.190;6.820;2023-03-21T09:53:25;12.80;;;9.20;;
10275;SDS011;5183;51.190;6.820;2023-03-21T09:55:57;14.23;;;9.43;;
10275;SDS011;5183;51.190;6.820;2023-03-21T09:58:27;13.07;;;9.13;;
10275;SDS011;5183;51.190;6.820;2023-03-21T10:01:00;15.65;;;11.80;;
10275;SDS011;5183;51.190;6.820;2023-03-21T10:03:32;16.93;;;10.70;;
10275;SDS011;5183;51.190;6.820;2023-03-21T10:06:02;12.53;;;9.33;;
10275;SDS011;5183;51.190;6.820;2023-03-21T10:08:34;13.00;;;9.00;;
10275;SDS011;5183;51.190;6.820;2023-03-21T10:11:06;12.77;;;9.00;;
10275;SDS011;5183;51.190;6.820;2023-03-21T10:13:38;14.63;;;8.83;;
10275;SDS011;5183;51.190;6.820;2023-03-21T10:16:09;13.67;;;8.90;;
10275;SDS011;5183;51.190;6.820;2023-03-21T10:18:39;14.80;;;8.40;;
10275;SDS011;5183;51.190;6.820;2023-03-21T10:21:10;12.50;;;8.10;;
10275;SDS011;5183;51.190;6.820;2023-03-21T10:23:47;11.33;;;8.60;;
10275;SDS011;5183;51.190;6.820;2023-03-21T10:26:16;11.53;;;8.13;;
10275;SDS011;5183;51.190;6.820;2023-03-21T10:28:46;12.03;;;8.23;;
10275;SDS011;5183;51.190;6.820;2023-03-21T10:31:14;11.80;;;7.60;;
10275;SDS011;5183;51.190;6.820;2023-03-21T10:33:47;15.87;;;8.17;;
10275;SDS011;5183;51.190;6.820;2023-03-21T10:36:15;12.63;;;7.73;;
10275;SDS011;5183;51.190;6.820;2023-03-21T10:38:48;12.67;;;8.33;;
10275;SDS011;5183;51.190;6.820;2023-03-21T10:41:18;12.93;;;8.73;;
10275;SDS011;5183;51.190;6.820;2023-03-21T10:43:45;12.57;;;8.43;;
10275;SDS011;5183;51.190;6.820;2023-03-21T10:46:15;13.80;;;7.90;;
10275;SDS011;5183;51.190;6.820;2023-03-21T10:48:48;12.93;;;7.73;;
10275;SDS011;5183;51.190;6.820;2023-03-21T10:51:18;11.27;;;7.57;;
10275;SDS011;5183;51.190;6.820;2023-03-21T10:53:50;11.32;;;7.82;;
10275;SDS011;5183;51.190;6.820;2023-03-21T10:56:22;13.63;;;8.15;;
10275;SDS011;5183;51.190;6.820;2023-03-21T10:58:52;10.07;;;7.03;;
10275;SDS011;5183;51.190;6.820;2023-03-21T11:01:24;11.97;;;8.00;;
10275;SDS011;5183;51.190;6.820;2023-03-21T11:03:56;14.25;;;8.35;;
10275;SDS011;5183;51.190;6.820;2023-03-21T11:06:26;14.63;;;7.87;;
10275;SDS011;5183;51.190;6.820;2023-03-21T11:08:59;14.53;;;8.53;;
10275;SDS011;5183;51.190;6.820;2023-03-21T11:11:32;14.67;;;11.60;;
10275;SDS011;5183;51.190;6.820;2023-03-21T11:14:02;14.13;;;8.95;;
10275;SDS011;5183;51.190;6.820;2023-03-21T11:16:34;12.13;;;8.03;;
10275;SDS011;5183;51.190;6.820;2023-03-21T11:19:11;10.80;;;7.53;;
10275;SDS011;5183;51.190;6.820;2023-03-21T11:21:39;13.17;;;8.10;;
10275;SDS011;5183;51.190;6.820;2023-03-21T11:24:09;12.67;;;7.50;;
10275;SDS011;5183;51.190;6.820;2023-03-21T11:26:39;10.00;;;7.70;;
10275;SDS011;5183;51.190;6.820;2023-03-21T11:29:18;10.37;;;7.50;;
10275;SDS011;5183;51.190;6.820;2023-03-21T11:31:51;11.40;;;7.20;;
10275;SDS011;5183;51.190;6.820;2023-03-21T11:34:25;10.60;;;6.97;;
10275;SDS011;5183;51.190;6.820;2023-03-21T11:36:57;10.30;;;6.77;;
10275;SDS011;5183;51.190;6.820;2023-03-21T11:39:29;10.13;;;7.23;;
10275;SDS011;5183;51.190;6.820;2023-03-21T11:41:57;12.60;;;7.20;;
10275;SDS011;5183;51.190;6.820;2023-03-21T11:44:26;10.53;;;7.10;;
10275;SDS011;5183;51.190;6.820;2023-03-21T11:46:54;11.10;;;6.80;;
10275;SDS011;5183;51.190;6.820;2023-03-21T11:49:22;9.90;;;6.40;;
10275;SDS011;5183;51.190;6.820;2023-03-21T11:51:52;11.27;;;7.30;;
10275;SDS011;5183;51.190;6.820;2023-03-21T11:54:27;11.30;;;6.50;;
10275;SDS011;5183;51.190;6.820;2023-03-21T11:57:06;12.30;;;5.93;;
10275;SDS011;5183;51.190;6.820;2023-03-21T11:59:44;9.83;;;6.20;;
10275;SDS011;5183;51.190;6.820;2023-03-21T12:02:24;9.63;;;6.47;;
10275;SDS011;5183;51.190;6.820;2023-03-21T12:05:08;9.07;;;5.40;;
10275;SDS011;5183;51.190;6.820;2023-03-21T12:07:46;10.00;;;6.00;;
10275;SDS011;5183;51.190;6.820;2023-03-21T12:10:27;9.37;;;5.93;;
10275;SDS011;5183;51.190;6.820;2023-03-21T12:13:00;10.52;;;6.70;;
10275;SDS011;5183;51.190;6.820;2023-03-21T12:15:35;10.27;;;6.27;;
10275;SDS011;5183;51.190;6.820;2023-03-21T12:18:12;9.45;;;6.60;;
10275;SDS011;5183;51.190;6.820;2023-03-21T12:20:50;7.80;;;5.87;;
10275;SDS011;5183;51.190;6.820;2023-03-21T12:26:16;9.33;;;6.50;;
10275;SDS011;5183;51.190;6.820;2023-03-21T12:28:56;9.47;;;6.43;;
10275;SDS011;5183;51.190;6.820;2023-03-21T12:31:34;11.45;;;7.10;;
10275;SDS011;5183;51.190;6.820;2023-03-21T12:34:16;9.30;;;6.73;;
10275;SDS011;5183;51.190;6.820;2023-03-21T12:36:57;11.33;;;6.90;;
10275;SDS011;5183;51.190;6.820;2023-03-21T12:39:33;12.03;;;7.30;;
10275;SDS011;5183;51.190;6.820;2023-03-21T12:45:11;9.00;;;6.33;;
10275;SDS011;5183;51.190;6.820;2023-03-21T12:47:42;11.00;;;6.23;;
10275;SDS011;5183;51.190;6.820;2023-03-21T12:50:14;9.17;;;6.00;;
10275;SDS011;5183;51.190;6.820;2023-03-21T12:52:46;10.90;;;6.63;;
10275;SDS011;5183;51.190;6.820;2023-03-21T12:55:17;10.83;;;5.63;;
10275;SDS011;5183;51.190;6.820;2023-03-21T12:57:48;10.00;;;6.83;;
10275;SDS011;5183;51.190;6.820;2023-03-21T13:00:20;10.20;;;6.17;;
10275;SDS011;5183;51.190;6.820;2023-03-21T13:02:51;10.80;;;6.38;;
10275;SDS011;5183;51.190;6.820;2023-03-21T13:05:21;11.20;;;5.77;;
10275;SDS011;5183;51.190;6.820;2023-03-21T13:07:55;8.07;;;5.87;;
10275;SDS011;5183;51.190;6.820;2023-03-21T13:10:25;10.60;;;5.70;;
10275;SDS011;5183;51.190;6.820;2023-03-21T13:13:03;8.43;;;5.00;;
10275;SDS011;5183;51.190;6.820;2023-03-21T13:15:44;8.32;;;5.65;;
10275;SDS011;5183;51.190;6.820;2023-03-21T13:18:21;7.00;;;4.70;;
10275;SDS011;5183;51.190;6.820;2023-03-21T13:20:55;6.90;;;5.30;;
10275;SDS011;5183;51.190;6.820;2023-03-21T13:23:32;10.27;;;5.50;;
10275;SDS011;5183;51.190;6.820;2023-03-21T13:26:01;7.27;;;4.97;;
10275;SDS011;5183;51.190;6.820;2023-03-21T13:28:31;6.67;;;5.13;;
10275;SDS011;5183;51.190;6.820;2023-03-21T13:31:18;8.80;;;5.07;;
10275;SDS011;5183;51.190;6.820;2023-03-21T13:33:47;7.33;;;5.43;;
10275;SDS011;5183;51.190;6.820;2023-03-21T13:36:15;7.20;;;4.80;;
10275;SDS011;5183;51.190;6.820;2023-03-21T13:38:48;9.30;;;5.20;;
10275;SDS011;5183;51.190;6.820;2023-03-21T13:41:18;6.07;;;4.70;;
10275;SDS011;5183;51.190;6.820;2023-03-21T13:43:52;7.77;;;4.83;;
10275;SDS011;5183;51.190;6.820;2023-03-21T13:46:34;7.57;;;4.87;;
10275;SDS011;5183;51.190;6.820;2023-03-21T13:49:13;8.70;;;4.80;;
10275;SDS011;5183;51.190;6.820;2023-03-21T13:51:42;6.27;;;4.33;;
10275;SDS011;5183;51.190;6.820;2023-03-21T13:54:18;6.70;;;4.33;;
10275;SDS011;5183;51.190;6.820;2023-03-21T13:56:49;8.73;;;4.27;;
10275;SDS011;5183;51.190;6.820;2023-03-21T13:59:34;6.60;;;4.30;;
10275;SDS011;5183;51.190;6.820;2023-03-21T14:02:03;6.17;;;4.60;;
10275;SDS011;5183;51.190;6.820;2023-03-21T14:04:54;6.63;;;4.30;;
10275;SDS011;5183;51.190;6.820;2023-03-21T14:07:24;7.10;;;4.70;;
10275;SDS011;5183;51.190;6.820;2023-03-21T14:09:54;9.53;;;4.73;;
10275;SDS011;5183;51.190;6.820;2023-03-21T14:12:25;8.60;;;4.90;;
10275;SDS011;5183;51.190;6.820;2023-03-21T14:14:58;7.10;;;4.33;;
10275;SDS011;5183;51.190;6.820;2023-03-21T14:17:28;5.07;;;4.50;;
10275;SDS011;5183;51.190;6.820;2023-03-21T14:19:58;9.40;;;4.90;;
10275;SDS011;5183;51.190;6.820;2023-03-21T14:22:31;6.63;;;4.70;;
10275;SDS011;5183;51.190;6.820;2023-03-21T14:24:59;4.93;;;4.40;;
10275;SDS011;5183;51.190;6.820;2023-03-21T14:27:28;6.10;;;4.43;;
10275;SDS011;5183;51.190;6.820;2023-03-21T14:29:58;7.97;;;4.67;;
10275;SDS011;5183;51.190;6.820;2023-03-21T14:32:27;8.57;;;4.47;;
10275;SDS011;5183;51.190;6.820;2023-03-21T14:34:55;7.67;;;4.80;;
10275;SDS011;5183;51.190;6.820;2023-03-21T14:37:29;7.23;;;4.33;;
10275;SDS011;5183;51.190;6.820;2023-03-21T14:39:59;7.67;;;4.60;;
10275;SDS011;5183;51.190;6.820;2023-03-21T14:42:27;7.20;;;4.67;;
10275;SDS011;5183;51.190;6.820;2023-03-21T14:45:05;6.47;;;4.77;;
10275;SDS011;5183;51.190;6.820;2023-03-21T14:47:40;7.33;;;4.80;;
10275;SDS011;5183;51.190;6.820;2023-03-21T14:50:08;6.77;;;4.17;;
10275;SDS011;5183;51.190;6.820;2023-03-21T14:52:36;6.70;;;4.63;;
10275;SDS011;5183;51.190;6.820;2023-03-21T14:55:10;6.53;;;4.40;;
10275;SDS011;5183;51.190;6.820;2023-03-21T14:57:41;7.10;;;4.57;;
10275;SDS011;5183;51.190;6.820;2023-03-21T15:00:13;6.23;;;4.50;;
10275;SDS011;5183;51.190;6.820;2023-03-21T15:02:46;6.37;;;4.37;;
10275;SDS011;5183;51.190;6.820;2023-03-21T15:05:14;6.63;;;4.33;;
10275;SDS011;5183;51.190;6.820;2023-03-21T15:07:51;7.87;;;4.70;;
10275;SDS011;5183;51.190;6.820;2023-03-21T15:10:20;4.97;;;4.10;;
10275;SDS011;5183;51.190;6.820;2023-03-21T15:12:49;6.47;;;4.10;;
10275;SDS011;5183;51.190;6.820;2023-03-21T15:15:19;7.40;;;4.70;;
10275;SDS011;5183;51.190;6.820;2023-03-21T15:17:47;5.25;;;3.80;;
10275;SDS011;5183;51.190;6.820;2023-03-21T15:20:17;5.23;;;3.70;;